SPHI/CIX METAR and TAF weather

Enter ICAO airport designator
Station Type Date Time Source
SPHI METAR 2019/06/19 03:00 UTC NOAA

SPHI 190300Z 19012KT CAVOK 18/15 Q1012 RMK PP000


Station Type Date Time Source
SPHI Decoded METAR 2019/06/19 03:00 UTC NOAA

Chiclayo, Peru (SPHI) 06-47S 079-50W 34M
Jun 18, 2019 - 11:00 PM EDT / 2019.06.19 0300 UTC
Wind: from the S (190 degrees) at 14 MPH (12 KT):0
Visibility: greater than 7 mile(s):0
Temperature: 64 F (18 C)
Dew Point: 59 F (15 C)
Relative Humidity: 82%
Pressure (altimeter): 29.88 in. Hg (1012 hPa)
ob: SPHI 190300Z 19012KT CAVOK 18/15 Q1012 RMK PP000
cycle: 3

Station Type Date Time Source
SPHI TAF 2019/06/18 18:33 UTC NOAA

TAF SPHI 181700Z 1818/1918 18012KT 9999 SCT020 TX24/1819Z TN17/1911Z
BECMG 1820/1821 18017KT
FM190400 18008KT 9999 BKN014
TEMPO 1911/1914 OVC009

Example: see airport list